Glenside, PA

3:28 PM EDT on October 01, 2014 (GMT -0400)
Philadelphia International | Change Station
CLOSE
Current Station
Airport
Location: Philadelphia,
Elevation: 26 ft
Nearby Weather Stations

Elev 26 ft 39.87 °N, 75.23 °W | Updated 34 minutes ago

Overcast
Overcast
73 °F
Feels Like 73 °F
N
8
Wind Variable Wind from ENE

Today
High -- | Low -- °F
--% Chance of Precip.
Yesterday
High -- | Low -- °F
Precip. -- in
6:56 AM 6:42 PM
Waxing Crescent, 50% visible
Pressure 30.01 in
Visibility 10.0 miles
Clouds Mostly Cloudy 3300 ft
Mostly Cloudy 4300 ft
Dew Point 57 °F
Humidity 57%
Rainfall 0.00 in
Snow Depth Not available.
UV 3 out of 12
Pollen 2.20 out of 12
Air Quality Not available.
Flu Activity Not available.
METAR KPHL 011854Z 06007KT 10SM BKN033 BKN043 23/14 A3001 RMK AO2 SLP161 T02280139

More Conditions Fewer Conditions

Pressure 30.01 in
Visibility 10.0 miles
Clouds Mostly Cloudy 3300 ft
Mostly Cloudy 4300 ft
Dew Point 57 °F
Humidity 57%
Rainfall 0.00 in
Snow Depth Not available.
UV 3 out of 12
Pollen 2.20 out of 12
Air Quality Not available.
Flu Activity Not available.
METAR KPHL 011854Z 06007KT 10SM BKN033 BKN043 23/14 A3001 RMK AO2 SLP161 T02280139

More Conditions Fewer Conditions

10-Day Weather Forecast

Almanac

Astronomy

Oct. 01, 2014 Rise Set
Actual Time 6:56 AM EDT 6:42 PM EDT
Civil Twilight 6:29 AM EDT 7:09 PM EDT
Nautical Twilight 5:58 AM EDT 7:41 PM EDT
Astronomical Twilight 5:26 AM EDT 8:13 PM EDT
Moon 1:55 PM EDT No Moon Set
Length of Visible Light 12h 40m
Length of Day
11h 46m
Tomorrow will be 2m 36s shorter.
Waxing Crescent, 50% of the Moon is Illuminated
Today
Waxing Crescent
Oct 1
First Quarter
Oct 8
Full
Oct 15
Last Quarter
Oct 23
New

Today's Extremes

State Highs State Lows

Community

WunderPhotos

Upload Photos

1,758,010 photos uploaded!

WunderBlogs® & News

Nearby

Snow Depth

Station Depth Elevation
No new snow has been reported.

Earthquake Activity

City Distance Mag. Time & Date
No recent earthquake activity has been reported nearby.
Minimum magnitude displayed is 2.5.

Coastal Water Temperatures

Place Temperature
No Stations Reporting

Nearby Weather Stations